RMK

Tweets about a recent trend: RMK

RMKも20周年だって言ってたなぁ。
RT @modelpress: 【RMK】幻のアイテム「ブルーグロス」はもう手に入れた?クリアなベビーリップを手に入れて!【他写真あり】 #RMK #コスメ #ブルーグロス https://t.co/KGuvgVSwHn https://t.co/KCrJVpxD4P
RT @modelpress: 【RMK】幻のアイテム「ブルーグロス」はもう手に入れた?クリアなベビーリップを手に入れて!【他写真あり】 #RMK #コスメ #ブルーグロス https://t.co/KGuvgVSwHn https://t.co/KCrJVpxD4P
RT @modelpress: 【RMK】幻のアイテム「ブルーグロス」はもう手に入れた?クリアなベビーリップを手に入れて!【他写真あり】 #RMK #コスメ #ブルーグロス https://t.co/KGuvgVSwHn https://t.co/KCrJVpxD4P
Instagram最前線 vol.4 欲しいのは、インスタ映えするコスメ! #RMK #資生堂 #THREE デジタル世代のマストバイコスメ図鑑【前編】 https://t.co/tLRszy5zK1 https://t.co/1Z57SO6sR6
METAR YBUK 250130Z 29005KT 27/15 Q1012 RMK RF0.0/0.0 UV13
RT @modelpress: 【RMK】幻のアイテム「ブルーグロス」はもう手に入れた?クリアなベビーリップを手に入れて!【他写真あり】 #RMK #コスメ #ブルーグロス https://t.co/KGuvgVSwHn https://t.co/KCrJVpxD4P
2017/03/25 01:20 RCTP 250120Z 02014KT 4000 -RA SCT006 BKN008 BKN025 16/16 Q1020 NOSIG RMK A3012
@kei_tuki_tarou いまね〜〜2階の展望スペースみたいなところに座ってる! 下りエスカレーターの近く!
@kei_tuki_tarou 遅くなってごめん!!いるよ!!!!!
【RMK】幻のアイテム「ブルーグロス」はもう手に入れた?クリアなベビーリップを手に入れて! https://t.co/DrFUHVA0eI #青汁 #酵素 #アンチエイジング #ダイエット #免疫力
2017.3.23〜24 おさむかい卒業旅行 in 横浜.ディズニーシー 余韻がすごい。この二日間はほんとに居心地が良くてこのメンバーが大好きになった!!学科の友達 から 大人になってもずっと繋がっていたい友達 になりました。… https://t.co/8A6PDvHwMe
【Gunosy】 【RMK】幻のアイテム「ブルーグロス」はもう手に入れた?クリアなベビーリップを手に入れて! https://t.co/GPdVUl2NF1  #女子 #ガールズ
RT @KSFO_wx: #KSFO 250056Z 04003KT 10SM FEW008 BKN029 OVC033 14/11 A3016 RMK AO2 SLP212 T01390111
RMKのグロスどこやったろ?
RT @modelpress: 【RMK】幻のアイテム「ブルーグロス」はもう手に入れた?クリアなベビーリップを手に入れて!【他写真あり】 #RMK #コスメ #ブルーグロス https://t.co/KGuvgVSwHn https://t.co/KCrJVpxD4P
#CYKF 250100Z AUTO 36005KT 9SM SCT036 BKN055 BKN076 BKN230 09/05 A3002 RMK SLP177
#PHNL 250053Z 14011KT 10SM -RA FEW020 SCT048 SCT100 27/21 A3011 RMK AO2 RAB34 SLP196 P0000 T02720211
#KLOT 250055Z AUTO 05017G22KT 7SM SCT026 BKN060 OVC080 08/08 A2998 RMK AO2 LTG DSNT NE P0024 T00780076
#PANC 250053Z VRB04KT 10SM CLR M03/M10 A2973 RMK AO2 SLP071 T10281100 $
#KLAF 250054Z AUTO 21008KT 10SM CLR 19/12 A3002 RMK AO2 SLP165 T01940122
#KMDW 250112Z 03010G20KT 5SM -TSRA BR FEW015 BKN031CB OVC040 07/05 A3004 RMK AO2 LTG DSNT NE AND E OCNL LTGICCG VC N-E-S TS VC N-E-S MOV ...